Del Norte — WDC2280 — position and weather

sailwx.info

Track history (hours):
 
Tides and Currents Weather Stations Pressure Air Temp Water Temp Dewpoint Dewpoint Depression Visibility Wind Speed Wind Dir Waves Ship Positions

Del Norte

Owner: Golden Gate Bridge,Hwy & Transportation District, Larkspur, CA. More information available from US FCC via Universal Licensing System and Coast Guard Vessel Documentation Center.

Last reported at 2016-Jun-25 20:15 UTC. Time now 2016-Jun-25 21:29 UTC.
Position N 37°56' W 122°30'.

Length 48 m.

Type: High speed craft. MMSI: 366990520.

Date/timePositionNaut miles runAvg speedWind from/ knotsBaromVisibWave heightAir tempDewpointWater temp
2016-Jun-25 20:15N 37°56' W 122°30'1012.6
2016-Jun-25 19:28N 37°48' W 122°24'7 3.6
2016-Jun-25 17:30N 37°55' W 122°26'3 0.2
2016-Jun-25 07:10N 37°56' W 122°29'915.1
2016-Jun-25 06:33N 37°48' W 122°24'0 0.0
2016-Jun-25 05:32N 37°48' W 122°24'0 0.0
2016-Jun-25 04:32N 37°48' W 122°24'9 9.5
2016-Jun-25 03:33N 37°56' W 122°29'9 4.6
2016-Jun-25 01:33N 37°48' W 122°23'9 7.3
2016-Jun-25 00:21N 37°56' W 122°29'5 6.3
2016-Jun-24 23:34N 37°52' W 122°25'4 4.2
2016-Jun-24 22:33N 37°48' W 122°24'2 0.9
2016-Jun-24 20:33N 37°50' W 122°23'9 7.9
2016-Jun-24 19:26N 37°57' W 122°30'7 8.1
2016-Jun-24 18:33N 37°51' W 122°25'6 5.7
2016-Jun-24 17:33N 37°56' W 122°29'2 1.8
2016-Jun-24 16:31N 37°54' W 122°27'7 7.6
2016-Jun-24 15:33N 37°48' W 122°24'5 4.8
2016-Jun-24 14:30N 37°53' W 122°25'4 0.3
2016-Jun-24 02:27N 37°49' W 122°23'1 0.5
2016-Jun-24 01:04N 37°49' W 122°24'2 1.1
2016-Jun-23 23:33N 37°48' W 122°23'8 6.6
2016-Jun-23 22:20N 37°55' W 122°27'7 2.7
2016-Jun-23 19:31N 37°49' W 122°23'2 1.5
2016-Jun-23 18:05N 37°51' W 122°24'1 1.1
2016-Jun-23 17:33N 37°51' W 122°25'1 0.9
2016-Jun-23 16:22N 37°52' W 122°24'4 2.1
2016-Jun-23 14:33N 37°48' W 122°23'4 3.8
2016-Jun-23 13:33N 37°52' W 122°24'0 0.0
2016-Jun-23 02:33N 37°51' W 122°25'1 0.5
2016-Jun-23 01:06N 37°51' W 122°24'2 3.6
2016-Jun-23 00:33N 37°52' W 122°25'5 4.8
2016-Jun-22 23:33N 37°48' W 122°23'4 2.7
2016-Jun-22 22:11N 37°52' W 122°24'2 3.6
2016-Jun-22 21:34N 37°53' W 122°26'4 1.7
2016-Jun-22 19:33N 37°50' W 122°24'0 0.2
2016-Jun-22 18:04N 37°51' W 122°24'1 1.7
2016-Jun-22 17:34N 37°51' W 122°24'1 0.6
2016-Jun-22 16:19N 37°51' W 122°24'3 1.6
2016-Jun-22 14:33N 37°48' W 122°24'4 4.0
2016-Jun-22 13:33N 37°52' W 122°24'3 0.3
2016-Jun-22 02:26N 37°48' W 122°23'4 2.3
2016-Jun-22 00:33N 37°52' W 122°25'5 4.9
2016-Jun-21 23:33N 37°48' W 122°24'3 1.9
2016-Jun-21 22:09N 37°50' W 122°24'1 0.5
2016-Jun-21 19:33N 37°49' W 122°23'1 0.8
2016-Jun-21 18:05N 37°50' W 122°24'1 2.5
2016-Jun-21 17:32N 37°51' W 122°25'5 5.6
2016-Jun-21 16:33N 37°56' W 122°29'0 0.3
2016-Jun-21 15:33N 37°56' W 122°28'9 8.8
2016-Jun-21 14:33N 37°48' W 122°24'4 4.2
2016-Jun-21 13:34N 37°52' W 122°24'7 6.7
2016-Jun-21 12:34N 37°57' W 122°31'6 0.6
2016-Jun-21 02:34N 37°52' W 122°25'5 3.8
2016-Jun-21 01:19N 37°56' W 122°29'4 5.7
2016-Jun-21 00:33N 37°52' W 122°25'5 4.9
2016-Jun-20 23:33N 37°48' W 122°23'10 8.6
2016-Jun-20 22:27N 37°56' W 122°29'1 0.9
2016-Jun-20 21:30N 37°56' W 122°28'7 3.5
2016-Jun-20 19:34N 37°50' W 122°23'7 5.4
2016-Jun-20 18:16N 37°56' W 122°29'5 7.6
2016-Jun-20 17:33N 37°51' W 122°25'1 0.8
2016-Jun-20 16:24N 37°52' W 122°25'5 2.5
2016-Jun-20 14:34N 37°48' W 122°23'4 3.8
2016-Jun-20 13:33N 37°52' W 122°24'4 0.4
2016-Jun-20 02:34N 37°48' W 122°24'5 5.2
2016-Jun-20 01:33N 37°51' W 122°29'5 4.8
2016-Jun-20 00:28N 37°48' W 122°24'1011.5
2016-Jun-19 23:33N 37°57' W 122°31'10 8.6
2016-Jun-19 22:20N 37°48' W 122°23'5 6.4
2016-Jun-19 21:34N 37°51' W 122°28'5 3.3
2016-Jun-19 20:04N 37°56' W 122°29'914.3
2016-Jun-19 19:24N 37°48' W 122°24'0 0.0
2016-Jun-19 02:34N 37°48' W 122°23'5 5.3
2016-Jun-19 01:33N 37°51' W 122°29'5 5.3
2016-Jun-19 00:33N 37°48' W 122°24'1010.0
2016-Jun-18 23:30N 37°57' W 122°31'1011.0
2016-Jun-18 22:33N 37°48' W 122°24'5 4.7
2016-Jun-18 21:34N 37°51' W 122°28'5 2.3
2016-Jun-18 19:31N 37°48' W 122°24'4 0.3
2016-Jun-18 02:33N 37°52' W 122°24'5 4.4
2016-Jun-18 01:23N 37°56' W 122°29'5 6.0
2016-Jun-18 00:33N 37°52' W 122°25'4 4.1
2016-Jun-17 23:33N 37°48' W 122°24'10 8.8
2016-Jun-17 22:27N 37°56' W 122°30'1 0.9
2016-Jun-17 21:29N 37°56' W 122°29'6 3.3
2016-Jun-17 19:33N 37°51' W 122°24'6 5.0
2016-Jun-17 18:18N 37°56' W 122°28'5 7.2
2016-Jun-17 17:33N 37°51' W 122°25'6 5.7
2016-Jun-17 16:32N 37°56' W 122°29'1 1.0
2016-Jun-17 15:32N 37°55' W 122°28'8 8.6
2016-Jun-17 14:34N 37°48' W 122°24'4 4.1
2016-Jun-17 13:33N 37°52' W 122°24'1 0.1
2016-Jun-17 02:31N 37°51' W 122°24'2 1.7
2016-Jun-17 01:09N 37°53' W 122°25'2 3.2
2016-Jun-17 00:34N 37°51' W 122°25'3 3.4
2016-Jun-16 23:33N 37°48' W 122°23'9 8.0
2016-Jun-16 22:24N 37°56' W 122°29'4 4.5
2016-Jun-16 21:33N 37°53' W 122°26'4 0.7
2016-Jun-16 16:32N 37°56' W 122°29'9 4.6
2016-Jun-16 14:33N 37°48' W 122°24'4 3.6
2016-Jun-16 13:33N 37°51' W 122°24'7 7.3
2016-Jun-16 12:33N 37°57' W 122°31'7 0.7
2016-Jun-16 02:33N 37°52' W 122°24'6 5.1
2016-Jun-16 01:19N 37°56' W 122°30'6 8.4
2016-Jun-16 00:33N 37°51' W 122°25'2 1.8
2016-Jun-15 23:34N 37°50' W 122°24'8 6.4
2016-Jun-15 22:23N 37°56' W 122°29'0 0.3
2016-Jun-15 21:30N 37°56' W 122°28'  
Track history (hours):
 
Tides and Currents Weather Stations Pressure Air Temp Water Temp Dewpoint Dewpoint Depression Visibility Wind Speed Wind Dir Waves Ship Positions

Del Norte

Owner: Golden Gate Bridge,Hwy & Transportation District, Larkspur, CA. More information available from US FCC via Universal Licensing System and Coast Guard Vessel Documentation Center.

Last reported at 2016-Jun-25 20:15 UTC. Time now 2016-Jun-25 21:29 UTC.
Position N 37°56' W 122°30'.

Length 48 m.

Type: High speed craft. MMSI: 366990520.

Date/timePositionNaut miles runAvg speedWind from/ knotsBaromVisibWave heightAir tempDewpointWater temp
2016-Jun-25 20:15N 37°56' W 122°30'1012.6
2016-Jun-25 19:28N 37°48' W 122°24'7 3.6
2016-Jun-25 17:30N 37°55' W 122°26'3 0.2
2016-Jun-25 07:10N 37°56' W 122°29'915.1
2016-Jun-25 06:33N 37°48' W 122°24'0 0.0
2016-Jun-25 05:32N 37°48' W 122°24'0 0.0
2016-Jun-25 04:32N 37°48' W 122°24'9 9.5
2016-Jun-25 03:33N 37°56' W 122°29'9 4.6
2016-Jun-25 01:33N 37°48' W 122°23'9 7.3
2016-Jun-25 00:21N 37°56' W 122°29'5 6.3
2016-Jun-24 23:34N 37°52' W 122°25'4 4.2
2016-Jun-24 22:33N 37°48' W 122°24'2 0.9
2016-Jun-24 20:33N 37°50' W 122°23'9 7.9
2016-Jun-24 19:26N 37°57' W 122°30'7 8.1
2016-Jun-24 18:33N 37°51' W 122°25'6 5.7
2016-Jun-24 17:33N 37°56' W 122°29'2 1.8
2016-Jun-24 16:31N 37°54' W 122°27'7 7.6
2016-Jun-24 15:33N 37°48' W 122°24'5 4.8
2016-Jun-24 14:30N 37°53' W 122°25'4 0.3
2016-Jun-24 02:27N 37°49' W 122°23'1 0.5
2016-Jun-24 01:04N 37°49' W 122°24'2 1.1
2016-Jun-23 23:33N 37°48' W 122°23'8 6.6
2016-Jun-23 22:20N 37°55' W 122°27'7 2.7
2016-Jun-23 19:31N 37°49' W 122°23'2 1.5
2016-Jun-23 18:05N 37°51' W 122°24'1 1.1
2016-Jun-23 17:33N 37°51' W 122°25'1 0.9
2016-Jun-23 16:22N 37°52' W 122°24'4 2.1
2016-Jun-23 14:33N 37°48' W 122°23'4 3.8
2016-Jun-23 13:33N 37°52' W 122°24'0 0.0
2016-Jun-23 02:33N 37°51' W 122°25'1 0.5
2016-Jun-23 01:06N 37°51' W 122°24'2 3.6
2016-Jun-23 00:33N 37°52' W 122°25'5 4.8
2016-Jun-22 23:33N 37°48' W 122°23'4 2.7
2016-Jun-22 22:11N 37°52' W 122°24'2 3.6
2016-Jun-22 21:34N 37°53' W 122°26'4 1.7
2016-Jun-22 19:33N 37°50' W 122°24'0 0.2
2016-Jun-22 18:04N 37°51' W 122°24'1 1.7
2016-Jun-22 17:34N 37°51' W 122°24'1 0.6
2016-Jun-22 16:19N 37°51' W 122°24'3 1.6
2016-Jun-22 14:33N 37°48' W 122°24'4 4.0
2016-Jun-22 13:33N 37°52' W 122°24'3 0.3
2016-Jun-22 02:26N 37°48' W 122°23'4 2.3
2016-Jun-22 00:33N 37°52' W 122°25'5 4.9
2016-Jun-21 23:33N 37°48' W 122°24'3 1.9
2016-Jun-21 22:09N 37°50' W 122°24'1 0.5
2016-Jun-21 19:33N 37°49' W 122°23'1 0.8
2016-Jun-21 18:05N 37°50' W 122°24'1 2.5
2016-Jun-21 17:32N 37°51' W 122°25'5 5.6
2016-Jun-21 16:33N 37°56' W 122°29'0 0.3
2016-Jun-21 15:33N 37°56' W 122°28'9 8.8
2016-Jun-21 14:33N 37°48' W 122°24'4 4.2
2016-Jun-21 13:34N 37°52' W 122°24'7 6.7
2016-Jun-21 12:34N 37°57' W 122°31'6 0.6
2016-Jun-21 02:34N 37°52' W 122°25'5 3.8
2016-Jun-21 01:19N 37°56' W 122°29'4 5.7
2016-Jun-21 00:33N 37°52' W 122°25'5 4.9
2016-Jun-20 23:33N 37°48' W 122°23'10 8.6
2016-Jun-20 22:27N 37°56' W 122°29'1 0.9
2016-Jun-20 21:30N 37°56' W 122°28'7 3.5
2016-Jun-20 19:34N 37°50' W 122°23'7 5.4
2016-Jun-20 18:16N 37°56' W 122°29'5 7.6
2016-Jun-20 17:33N 37°51' W 122°25'1 0.8
2016-Jun-20 16:24N 37°52' W 122°25'5 2.5
2016-Jun-20 14:34N 37°48' W 122°23'4 3.8
2016-Jun-20 13:33N 37°52' W 122°24'4 0.4
2016-Jun-20 02:34N 37°48' W 122°24'5 5.2
2016-Jun-20 01:33N 37°51' W 122°29'5 4.8
2016-Jun-20 00:28N 37°48' W 122°24'1011.5
2016-Jun-19 23:33N 37°57' W 122°31'10 8.6
2016-Jun-19 22:20N 37°48' W 122°23'5 6.4
2016-Jun-19 21:34N 37°51' W 122°28'5 3.3
2016-Jun-19 20:04N 37°56' W 122°29'914.3
2016-Jun-19 19:24N 37°48' W 122°24'0 0.0
2016-Jun-19 02:34N 37°48' W 122°23'5 5.3
2016-Jun-19 01:33N 37°51' W 122°29'5 5.3
2016-Jun-19 00:33N 37°48' W 122°24'1010.0
2016-Jun-18 23:30N 37°57' W 122°31'1011.0
2016-Jun-18 22:33N 37°48' W 122°24'5 4.7
2016-Jun-18 21:34N 37°51' W 122°28'5 2.3
2016-Jun-18 19:31N 37°48' W 122°24'4 0.3
2016-Jun-18 02:33N 37°52' W 122°24'5 4.4
2016-Jun-18 01:23N 37°56' W 122°29'5 6.0
2016-Jun-18 00:33N 37°52' W 122°25'4 4.1
2016-Jun-17 23:33N 37°48' W 122°24'10 8.8
2016-Jun-17 22:27N 37°56' W 122°30'1 0.9
2016-Jun-17 21:29N 37°56' W 122°29'6 3.3
2016-Jun-17 19:33N 37°51' W 122°24'6 5.0
2016-Jun-17 18:18N 37°56' W 122°28'5 7.2
2016-Jun-17 17:33N 37°51' W 122°25'6 5.7
2016-Jun-17 16:32N 37°56' W 122°29'1 1.0
2016-Jun-17 15:32N 37°55' W 122°28'8 8.6
2016-Jun-17 14:34N 37°48' W 122°24'4 4.1
2016-Jun-17 13:33N 37°52' W 122°24'1 0.1
2016-Jun-17 02:31N 37°51' W 122°24'2 1.7
2016-Jun-17 01:09N 37°53' W 122°25'2 3.2
2016-Jun-17 00:34N 37°51' W 122°25'3 3.4
2016-Jun-16 23:33N 37°48' W 122°23'9 8.0
2016-Jun-16 22:24N 37°56' W 122°29'4 4.5
2016-Jun-16 21:33N 37°53' W 122°26'4 0.7
2016-Jun-16 16:32N 37°56' W 122°29'9 4.6
2016-Jun-16 14:33N 37°48' W 122°24'4 3.6
2016-Jun-16 13:33N 37°51' W 122°24'7 7.3
2016-Jun-16 12:33N 37°57' W 122°31'7 0.7
2016-Jun-16 02:33N 37°52' W 122°24'6 5.1
2016-Jun-16 01:19N 37°56' W 122°30'6 8.4
2016-Jun-16 00:33N 37°51' W 122°25'2 1.8
2016-Jun-15 23:34N 37°50' W 122°24'8 6.4
2016-Jun-15 22:23N 37°56' W 122°29'0 0.3
2016-Jun-15 21:30N 37°56' W 122°28'  

Dump ship's entire track history